aviador You're here:

KDLS Decoded Metar

THE DALLES in OR, USA
Report Time2018-01-18 09:53:00
UTC Time2018-01-18 10:04:07
Flight Rules ifr IFR
Wind190° at 05 kt
W.Decomp.*RWY 13: 3.5 kt HW 3.5 kt RCW
RWY 25: 1.3 kt HW 4.8 kt LCW
W.Rank190° ranks 28
Current wind is above 190° avg. (4.0)
Visibility4023 m
Phenomena:Mist
Clouds:Few 007 Hf
Overcast 055 Hf
Expected CloudBase > 400 ft AGL from Temp-Dew spread
Ceiling5,500 ft
Temp06°C (ISA -9)
Dew Point05°C (93% RH)
AAT3.1°C
QNH1012 hPa
Density Alt-643 ft
Elevation233 ft
Report Wrong Elevation
Raw Report
METAR KDLS 180953Z AUTO 19005KT 2 1/2SM BR FEW007 OVC055 06/05 A2988
RMK AO2 SLP120 T00560050=

Extra information for KDLS:More info

Metar Taf Metar & Taf Last 4 Metars F.Rules Stats Wind Profile Meteogram Temp Stats Airport Information Weather charts Add Link Nearby VenuesMetar ALERT Operation Metar Decoded Social comments

AIRNAV info for KDLS